createdAt,value
2019-05-20T00:02:24.649Z,53.20
2019-05-20T00:04:48.370Z,53.26
2019-05-20T00:07:15.173Z,53.49
2019-05-20T00:09:42.011Z,53.46
2019-05-20T00:12:08.795Z,53.37
2019-05-20T00:14:35.639Z,53.33
2019-05-20T00:17:02.487Z,53.36
2019-05-20T00:19:29.369Z,53.50
2019-05-20T00:21:56.190Z,53.55
2019-05-20T00:24:23.011Z,53.42
2019-05-20T00:26:49.801Z,53.37
2019-05-20T00:29:16.612Z,53.43
2019-05-20T00:31:43.702Z,53.55
2019-05-20T00:34:10.511Z,53.45
2019-05-20T00:36:37.338Z,53.45
2019-05-20T00:39:14.863Z,53.42
2019-05-20T00:41:41.753Z,53.63
2019-05-20T00:44:08.668Z,53.38
2019-05-20T00:46:35.525Z,53.58
2019-05-20T00:49:02.360Z,53.45
2019-05-20T00:51:29.215Z,53.55
2019-05-20T00:53:56.005Z,53.46
2019-05-20T00:56:22.825Z,53.70
2019-05-20T00:58:49.700Z,53.63
2019-05-20T01:01:16.550Z,53.70
2019-05-20T01:03:43.430Z,53.60
2019-05-20T01:06:10.226Z,53.51
2019-05-20T01:08:37.057Z,53.51
2019-05-20T01:11:03.922Z,53.75
2019-05-20T01:13:30.759Z,53.75
2019-05-20T01:15:57.640Z,53.70
2019-05-20T01:18:24.484Z,53.57
2019-05-20T01:20:51.307Z,53.74
2019-05-20T01:23:18.165Z,53.67
2019-05-20T01:25:45.029Z,53.71
2019-05-20T01:28:11.939Z,53.70
2019-05-20T01:30:38.771Z,53.71
2019-05-20T01:33:13.782Z,53.79
2019-05-20T01:35:34.052Z,53.77
2019-05-20T01:38:00.844Z,53.73
2019-05-20T01:40:27.733Z,53.74
2019-05-20T01:42:54.595Z,53.73
2019-05-20T01:45:21.475Z,53.82
2019-05-20T01:47:48.301Z,53.71
2019-05-20T01:50:15.139Z,53.84
2019-05-20T01:52:42.012Z,53.72
2019-05-20T01:55:08.806Z,53.86
2019-05-20T01:57:35.642Z,53.87
2019-05-20T02:00:02.458Z,53.90
2019-05-20T02:02:29.346Z,53.85
2019-05-20T02:04:56.152Z,53.93
2019-05-20T02:07:23.044Z,53.86
2019-05-20T02:09:49.887Z,53.75
2019-05-20T02:12:16.702Z,53.86
2019-05-20T02:14:51.074Z,53.75
2019-05-20T02:17:17.923Z,53.96
2019-05-20T02:19:44.732Z,53.79
2019-05-20T02:22:11.547Z,53.72
2019-05-20T02:24:38.410Z,53.82
2019-05-20T02:27:05.233Z,53.83
2019-05-20T02:29:32.035Z,53.94
2019-05-20T02:31:58.850Z,53.98
2019-05-20T02:34:25.670Z,53.85
2019-05-20T02:36:52.546Z,53.87
2019-05-20T02:39:19.419Z,53.96
2019-05-20T02:41:46.267Z,53.87
2019-05-20T02:44:13.131Z,53.86
2019-05-20T02:46:40.217Z,53.92
2019-05-20T02:49:07.045Z,53.92
2019-05-20T02:51:33.858Z,53.99
2019-05-20T02:54:00.730Z,53.94
2019-05-20T02:56:27.541Z,53.99
2019-05-20T02:58:54.323Z,54.01
2019-05-20T03:01:22.125Z,54.01
2019-05-20T03:03:49.140Z,53.93
2019-05-20T03:06:16.077Z,54.09
2019-05-20T03:08:42.884Z,54.03
2019-05-20T03:11:09.812Z,54.04
2019-05-20T03:13:36.677Z,54.01
2019-05-20T03:16:03.683Z,53.99
2019-05-20T03:18:30.503Z,53.94
2019-05-20T03:20:57.417Z,53.98
2019-05-20T03:23:24.281Z,53.92
2019-05-20T03:25:51.261Z,53.98
2019-05-20T03:28:18.134Z,54.01
2019-05-20T03:30:45.211Z,53.93
2019-05-20T03:33:12.764Z,54.06
2019-05-20T03:35:39.744Z,54.03
2019-05-20T03:38:06.689Z,54.00
2019-05-20T03:40:33.547Z,54.04
2019-05-20T03:43:00.490Z,54.10
2019-05-20T03:45:27.407Z,54.10
2019-05-20T03:47:54.287Z,54.08
2019-05-20T03:50:21.370Z,54.02
2019-05-20T03:52:48.261Z,54.03
2019-05-20T03:55:15.259Z,54.07
2019-05-20T03:57:42.099Z,54.16
2019-05-20T04:00:08.958Z,54.17
2019-05-20T04:02:35.789Z,54.16
2019-05-20T04:05:03.331Z,54.10
2019-05-20T04:07:30.578Z,54.13
2019-05-20T04:09:57.476Z,54.10
2019-05-20T04:12:24.325Z,54.08
2019-05-20T04:14:51.270Z,54.10
2019-05-20T04:17:18.168Z,54.13
2019-05-20T04:19:45.190Z,54.20
2019-05-20T04:22:12.096Z,54.17
2019-05-20T04:24:38.926Z,54.23
2019-05-20T04:27:05.796Z,54.17
2019-05-20T04:29:32.620Z,54.19
2019-05-20T04:31:59.510Z,54.14
2019-05-20T04:34:26.406Z,54.14
2019-05-20T04:36:53.236Z,54.13
2019-05-20T04:39:20.153Z,54.17
2019-05-20T04:41:47.019Z,54.15
2019-05-20T04:44:13.968Z,54.10
2019-05-20T04:46:40.997Z,54.18
2019-05-20T04:49:08.037Z,54.17
2019-05-20T04:51:34.899Z,54.19
2019-05-20T04:54:01.861Z,54.13
2019-05-20T04:56:29.480Z,54.22
2019-05-20T04:58:56.638Z,54.09
2019-05-20T05:01:23.584Z,54.15
2019-05-20T05:03:50.563Z,54.18
2019-05-20T05:06:17.504Z,54.18
2019-05-20T05:08:44.454Z,54.15
2019-05-20T05:11:11.382Z,54.13
2019-05-20T05:13:38.204Z,54.26
2019-05-20T05:16:05.084Z,54.26
2019-05-20T05:18:32.008Z,54.16
2019-05-20T05:20:58.835Z,54.13
2019-05-20T05:23:25.643Z,54.26
2019-05-20T05:25:52.547Z,54.21
2019-05-20T05:28:19.568Z,54.24
2019-05-20T05:30:46.566Z,54.23
2019-05-20T05:33:13.469Z,54.30
2019-05-20T05:35:52.319Z,54.21
2019-05-20T05:38:09.016Z,54.29
2019-05-20T05:40:35.884Z,54.35
2019-05-20T05:43:02.775Z,54.30
2019-05-20T05:45:29.759Z,54.27
2019-05-20T05:47:56.731Z,54.33
2019-05-20T05:50:23.674Z,54.38
2019-05-20T05:52:50.679Z,54.35
2019-05-20T05:55:17.575Z,54.43
2019-05-20T05:57:44.435Z,54.38
2019-05-20T06:00:11.471Z,54.48
2019-05-20T06:02:38.424Z,54.35
2019-05-20T06:05:05.380Z,54.31
2019-05-20T06:07:32.297Z,54.41
2019-05-20T06:09:59.176Z,54.27
2019-05-20T06:12:26.063Z,54.34
2019-05-20T06:14:52.965Z,54.36
2019-05-20T06:17:19.856Z,54.41
2019-05-20T06:19:46.661Z,54.39
2019-05-20T06:22:14.570Z,54.35
2019-05-20T06:24:41.595Z,54.32
2019-05-20T06:27:08.525Z,54.38
2019-05-20T06:29:35.354Z,54.50
2019-05-20T06:32:02.248Z,54.46
2019-05-20T06:34:29.120Z,54.38
2019-05-20T06:36:57.621Z,54.39
2019-05-20T06:39:24.456Z,54.50
2019-05-20T06:41:51.315Z,54.49
2019-05-20T06:44:18.137Z,54.42
2019-05-20T06:46:44.975Z,54.47
2019-05-20T06:49:11.804Z,54.38
2019-05-20T06:51:38.599Z,54.47
2019-05-20T06:54:05.526Z,54.51
2019-05-20T06:56:32.451Z,54.57
2019-05-20T06:58:59.520Z,54.54
2019-05-20T07:01:26.575Z,54.41
2019-05-20T07:03:53.552Z,54.49
2019-05-20T07:06:20.530Z,54.50
2019-05-20T07:08:47.380Z,54.50
2019-05-20T07:11:14.224Z,54.58
2019-05-20T07:13:41.134Z,54.69
2019-05-20T07:16:08.004Z,54.70
2019-05-20T07:18:34.818Z,54.66
2019-05-20T07:21:01.636Z,54.57
2019-05-20T07:23:28.592Z,54.73
2019-05-20T07:25:55.547Z,54.64
2019-05-20T07:28:22.509Z,54.72
2019-05-20T07:30:49.553Z,54.75
2019-05-20T07:33:16.558Z,54.67
2019-05-20T07:35:44.055Z,54.73
2019-05-20T07:38:11.218Z,54.92
2019-05-20T07:40:38.259Z,54.67
2019-05-20T07:43:05.432Z,54.61
2019-05-20T07:45:32.666Z,54.81
2019-05-20T07:47:59.672Z,54.78
2019-05-20T07:50:26.520Z,54.85
2019-05-20T07:52:53.305Z,54.73
2019-05-20T07:55:20.102Z,54.01
2019-05-20T07:57:46.953Z,55.33
2019-05-20T08:00:13.766Z,55.98
2019-05-20T08:02:40.556Z,55.99
2019-05-20T08:05:07.440Z,55.59
2019-05-20T08:07:50.326Z,56.21
2019-05-20T08:10:02.801Z,56.65
2019-05-20T08:12:29.587Z,56.16
2019-05-20T08:14:56.357Z,57.04
2019-05-20T08:17:23.130Z,58.50
2019-05-20T08:19:49.950Z,58.34
2019-05-20T08:22:16.710Z,58.03
2019-05-20T08:24:43.491Z,58.28
2019-05-20T08:27:10.259Z,58.80
2019-05-20T08:29:37.045Z,58.46
2019-05-20T08:32:03.845Z,58.02
2019-05-20T08:34:30.955Z,58.34
2019-05-20T08:36:57.916Z,58.44
2019-05-20T08:39:24.677Z,58.59
2019-05-20T08:41:51.462Z,57.77
2019-05-20T08:44:18.278Z,57.90
2019-05-20T08:46:45.091Z,57.94
2019-05-20T08:49:12.010Z,57.67
2019-05-20T08:51:39.031Z,57.26
2019-05-20T08:54:05.885Z,57.44
2019-05-20T08:56:32.688Z,57.02
2019-05-20T08:58:59.449Z,56.95
2019-05-20T09:01:26.250Z,56.69
2019-05-20T09:03:53.030Z,56.52
2019-05-20T09:06:20.962Z,56.38
2019-05-20T09:08:47.883Z,56.20
2019-05-20T09:11:14.694Z,55.97
2019-05-20T09:13:41.502Z,55.86
2019-05-20T09:16:08.321Z,55.84
2019-05-20T09:18:35.178Z,55.60
2019-05-20T09:21:02.061Z,55.33
2019-05-20T09:23:29.085Z,55.55
2019-05-20T09:25:55.875Z,56.04
2019-05-20T09:28:22.698Z,56.07
2019-05-20T09:30:49.523Z,55.79
2019-05-20T09:33:16.328Z,55.47
2019-05-20T09:35:43.453Z,55.64
2019-05-20T09:38:20.444Z,56.02
2019-05-20T09:40:38.959Z,56.01
2019-05-20T09:43:05.986Z,56.05
2019-05-20T09:45:32.753Z,56.01
2019-05-20T09:47:59.544Z,56.16
2019-05-20T09:50:26.330Z,56.06
2019-05-20T09:52:53.397Z,56.11
2019-05-20T09:55:20.296Z,56.14
2019-05-20T09:57:47.063Z,56.13
2019-05-20T10:00:13.841Z,56.19
2019-05-20T10:02:40.616Z,56.21
2019-05-20T10:05:07.421Z,56.14
2019-05-20T10:07:34.177Z,56.10
2019-05-20T10:10:00.968Z,56.12
2019-05-20T10:12:44.623Z,56.01
2019-05-20T10:14:56.258Z,56.05
2019-05-20T10:17:23.034Z,56.02
2019-05-20T10:19:49.810Z,56.13
2019-05-20T10:22:16.594Z,55.99
2019-05-20T10:24:43.381Z,55.97
2019-05-20T10:27:10.150Z,56.07
2019-05-20T10:29:36.920Z,55.94
2019-05-20T10:32:03.700Z,55.97
2019-05-20T10:34:30.474Z,55.85
2019-05-20T10:36:57.247Z,55.96
2019-05-20T10:39:24.042Z,56.06
2019-05-20T10:41:50.822Z,56.00
2019-05-20T10:44:17.623Z,55.92
2019-05-20T10:46:44.413Z,55.85
2019-05-20T10:49:11.198Z,55.70
2019-05-20T10:51:37.974Z,55.69
2019-05-20T10:54:04.784Z,55.47
2019-05-20T10:56:31.540Z,55.62
2019-05-20T10:58:58.308Z,55.49
2019-05-20T11:01:25.087Z,55.51
2019-05-20T11:03:51.908Z,55.53
2019-05-20T11:06:18.705Z,55.27
2019-05-20T11:08:45.470Z,55.28
2019-05-20T11:11:14.325Z,55.37
2019-05-20T11:13:40.759Z,55.56
2019-05-20T11:16:07.544Z,55.61
2019-05-20T11:18:34.341Z,55.79
2019-05-20T11:21:01.212Z,55.73
2019-05-20T11:23:27.986Z,55.75
2019-05-20T11:25:54.767Z,55.81
2019-05-20T11:28:21.536Z,55.79
2019-05-20T11:30:48.322Z,55.85
2019-05-20T11:33:15.137Z,55.90
2019-05-20T11:35:41.975Z,55.90
2019-05-20T11:38:08.763Z,55.92
2019-05-20T11:40:35.549Z,55.90
2019-05-20T11:43:02.342Z,55.80
2019-05-20T11:45:29.132Z,55.86
2019-05-20T11:47:55.946Z,55.88
2019-05-20T11:50:22.722Z,55.81
2019-05-20T11:52:49.776Z,55.86
2019-05-20T11:55:16.704Z,55.87
2019-05-20T11:57:43.473Z,55.65
2019-05-20T12:00:10.271Z,55.61
2019-05-20T12:02:37.048Z,55.74
2019-05-20T12:05:03.831Z,55.66
2019-05-20T12:07:30.623Z,55.63
2019-05-20T12:09:57.395Z,55.54
2019-05-20T12:12:24.222Z,55.66
2019-05-20T12:14:51.093Z,55.76
2019-05-20T12:17:17.996Z,55.83
2019-05-20T12:19:44.802Z,55.67
2019-05-20T12:22:11.603Z,55.76
2019-05-20T12:24:38.463Z,55.93
2019-05-20T12:27:05.334Z,55.76
2019-05-20T12:29:32.189Z,55.73
2019-05-20T12:32:03.207Z,55.73
2019-05-20T12:34:27.608Z,55.79
2019-05-20T12:36:54.461Z,55.95
2019-05-20T12:39:21.336Z,55.88
2019-05-20T12:41:48.158Z,55.36
2019-05-20T12:44:14.965Z,56.11
2019-05-20T12:46:41.800Z,55.98
2019-05-20T12:49:08.688Z,55.95
2019-05-20T12:51:35.557Z,55.94
2019-05-20T12:54:02.346Z,56.01
2019-05-20T12:56:29.118Z,55.93
2019-05-20T12:58:55.915Z,55.99
2019-05-20T13:01:22.686Z,55.85
2019-05-20T13:03:49.464Z,55.87
2019-05-20T13:06:16.585Z,55.91
2019-05-20T13:08:43.423Z,55.77
2019-05-20T13:11:10.600Z,55.78
2019-05-20T13:13:37.449Z,55.72
2019-05-20T13:16:04.291Z,55.66
2019-05-20T13:18:31.170Z,55.66
2019-05-20T13:20:57.928Z,55.50
2019-05-20T13:23:24.712Z,55.54
2019-05-20T13:25:51.851Z,55.50
2019-05-20T13:28:18.616Z,55.46
2019-05-20T13:30:45.400Z,55.41
2019-05-20T13:33:12.168Z,55.46
2019-05-20T13:35:38.978Z,55.44
2019-05-20T13:38:05.804Z,55.44
2019-05-20T13:40:45.730Z,55.29
2019-05-20T13:43:01.169Z,55.41
2019-05-20T13:45:27.928Z,55.42
2019-05-20T13:47:54.708Z,55.39
2019-05-20T13:50:21.502Z,55.45
2019-05-20T13:52:48.271Z,55.30
2019-05-20T13:55:15.222Z,55.36
2019-05-20T13:57:42.547Z,55.35
2019-05-20T14:00:09.614Z,55.30
2019-05-20T14:02:36.452Z,55.07
2019-05-20T14:05:03.246Z,55.26
2019-05-20T14:07:30.032Z,55.15
2019-05-20T14:09:56.882Z,55.21
2019-05-20T14:12:23.650Z,55.12
2019-05-20T14:14:50.426Z,55.19
2019-05-20T14:17:17.202Z,55.24
2019-05-20T14:19:44.001Z,55.14
2019-05-20T14:22:10.772Z,55.14
2019-05-20T14:24:37.541Z,55.18
2019-05-20T14:27:04.438Z,55.18
2019-05-20T14:29:31.293Z,55.21
2019-05-20T14:31:58.077Z,55.27
2019-05-20T14:34:24.864Z,55.33
2019-05-20T14:36:53.003Z,55.22
2019-05-20T14:39:20.048Z,55.29
2019-05-20T14:41:46.841Z,55.25
2019-05-20T14:44:13.606Z,55.24
2019-05-20T14:46:40.407Z,55.30
2019-05-20T14:49:07.474Z,55.16
2019-05-20T14:51:34.255Z,55.14
2019-05-20T14:54:01.082Z,55.09
2019-05-20T14:56:27.871Z,55.20
2019-05-20T14:58:55.817Z,55.25
2019-05-20T15:01:22.726Z,55.14
2019-05-20T15:03:49.497Z,55.11
2019-05-20T15:06:16.268Z,55.08
2019-05-20T15:08:43.028Z,55.24
2019-05-20T15:11:09.820Z,55.23
2019-05-20T15:13:36.598Z,55.22
2019-05-20T15:16:03.409Z,55.15
2019-05-20T15:18:30.176Z,55.17
2019-05-20T15:20:56.983Z,55.16
2019-05-20T15:23:23.798Z,55.14
2019-05-20T15:25:50.679Z,55.11
2019-05-20T15:28:17.460Z,55.08
2019-05-20T15:30:44.254Z,55.17
2019-05-20T15:33:11.035Z,55.06
2019-05-20T15:35:37.814Z,55.04
2019-05-20T15:38:04.597Z,55.09
2019-05-20T15:40:31.390Z,55.09
2019-05-20T15:42:58.175Z,55.06
2019-05-20T15:45:24.947Z,55.08
2019-05-20T15:47:51.740Z,55.07
2019-05-20T15:50:18.505Z,54.95
2019-05-20T15:52:45.303Z,55.12
2019-05-20T15:55:12.075Z,54.97
2019-05-20T15:57:38.863Z,55.00
2019-05-20T16:00:05.629Z,54.82
2019-05-20T16:02:32.450Z,55.10
2019-05-20T16:04:59.304Z,55.05
2019-05-20T16:07:26.194Z,54.97
2019-05-20T16:09:52.983Z,55.16
2019-05-20T16:12:19.764Z,55.01
2019-05-20T16:14:46.637Z,55.00
2019-05-20T16:17:13.739Z,55.16
2019-05-20T16:19:40.604Z,55.02
2019-05-20T16:22:07.388Z,55.02
2019-05-20T16:24:34.170Z,54.87
2019-05-20T16:27:01.031Z,54.97
2019-05-20T16:29:27.807Z,54.87
2019-05-20T16:31:54.573Z,54.84
2019-05-20T16:34:21.361Z,54.71
2019-05-20T16:36:48.140Z,54.65
2019-05-20T16:39:14.925Z,54.71
2019-05-20T16:41:41.706Z,54.68
2019-05-20T16:44:08.481Z,54.69
2019-05-20T16:46:35.272Z,54.64
2019-05-20T16:49:02.048Z,54.62
2019-05-20T16:51:28.860Z,54.63
2019-05-20T16:53:55.777Z,54.61
2019-05-20T16:56:22.561Z,54.67
2019-05-20T16:58:49.370Z,55.11
2019-05-20T17:01:16.172Z,55.26
2019-05-20T17:03:42.950Z,55.17
2019-05-20T17:06:09.722Z,54.90
2019-05-20T17:08:36.513Z,54.92
2019-05-20T17:11:03.289Z,54.93
2019-05-20T17:13:30.138Z,54.83
2019-05-20T17:15:56.939Z,54.93
2019-05-20T17:18:23.986Z,54.76
2019-05-20T17:20:50.772Z,54.74
2019-05-20T17:23:17.621Z,54.84
2019-05-20T17:25:44.458Z,54.91
2019-05-20T17:28:11.241Z,54.86
2019-05-20T17:30:45.598Z,54.78
2019-05-20T17:33:06.542Z,54.78
2019-05-20T17:35:33.306Z,54.76
2019-05-20T17:38:00.177Z,54.77
2019-05-20T17:40:27.040Z,54.90
2019-05-20T17:42:53.852Z,54.96
2019-05-20T17:45:20.635Z,54.89
2019-05-20T17:47:47.448Z,54.92
2019-05-20T17:50:14.218Z,54.99
2019-05-20T17:52:41.019Z,54.93
2019-05-20T17:55:07.822Z,54.96
2019-05-20T17:57:34.601Z,54.99
2019-05-20T18:00:01.528Z,54.96
2019-05-20T18:02:28.308Z,54.96
2019-05-20T18:04:55.114Z,55.03
2019-05-20T18:07:21.886Z,55.02
2019-05-20T18:09:50.315Z,55.02
2019-05-20T18:12:17.101Z,54.90
2019-05-20T18:14:45.543Z,54.87
2019-05-20T18:17:13.120Z,54.96
2019-05-20T18:19:40.010Z,54.92
2019-05-20T18:22:06.797Z,55.17
2019-05-20T18:24:33.585Z,55.03
2019-05-20T18:27:00.345Z,55.25
2019-05-20T18:29:27.123Z,55.15
2019-05-20T18:31:53.918Z,55.14
2019-05-20T18:34:20.699Z,55.22
2019-05-20T18:36:47.467Z,55.14
2019-05-20T18:39:14.247Z,55.21
2019-05-20T18:41:41.025Z,55.23
2019-05-20T18:44:07.797Z,55.20
2019-05-20T18:46:34.579Z,55.18
2019-05-20T18:49:01.364Z,55.40
2019-05-20T18:51:28.158Z,55.34
2019-05-20T18:53:54.961Z,55.42
2019-05-20T18:56:21.734Z,55.47
2019-05-20T18:58:48.500Z,55.03
2019-05-20T19:01:15.356Z,55.48
2019-05-20T19:03:42.302Z,55.27
2019-05-20T19:06:09.188Z,55.35
2019-05-20T19:08:36.037Z,55.44
2019-05-20T19:11:02.827Z,55.42
2019-05-20T19:13:29.603Z,55.31
2019-05-20T19:15:56.388Z,55.30
2019-05-20T19:18:23.168Z,55.30
2019-05-20T19:20:49.937Z,55.41
2019-05-20T19:23:16.726Z,55.35
2019-05-20T19:25:44.059Z,55.27
2019-05-20T19:28:10.984Z,55.21
2019-05-20T19:30:37.754Z,55.30
2019-05-20T19:33:05.511Z,55.39
2019-05-20T19:35:32.322Z,55.40
2019-05-20T19:37:59.114Z,55.34
2019-05-20T19:40:25.921Z,55.36
2019-05-20T19:42:52.694Z,55.36
2019-05-20T19:45:19.496Z,55.42
2019-05-20T19:47:46.264Z,55.24
2019-05-20T19:50:13.093Z,55.28
2019-05-20T19:52:39.914Z,55.33
2019-05-20T19:55:06.692Z,55.40
2019-05-20T19:57:33.460Z,55.33
2019-05-20T20:00:00.252Z,55.35
2019-05-20T20:02:27.030Z,55.29
2019-05-20T20:04:53.876Z,55.34
2019-05-20T20:07:20.682Z,55.31
2019-05-20T20:09:47.530Z,55.32
2019-05-20T20:12:14.407Z,55.31
2019-05-20T20:14:41.172Z,55.17
2019-05-20T20:17:07.959Z,55.85
2019-05-20T20:19:34.824Z,56.19
2019-05-20T20:22:01.754Z,55.07
2019-05-20T20:24:28.520Z,55.72
2019-05-20T20:26:55.298Z,55.46
2019-05-20T20:29:22.095Z,55.51
2019-05-20T20:31:48.860Z,55.25
2019-05-20T20:34:15.648Z,55.52
2019-05-20T20:36:42.433Z,55.01
2019-05-20T20:39:09.267Z,55.55
2019-05-20T20:41:36.156Z,55.48
2019-05-20T20:44:03.004Z,55.49
2019-05-20T20:46:29.827Z,55.69
2019-05-20T20:48:56.706Z,55.81
2019-05-20T20:51:23.503Z,55.66
2019-05-20T20:53:50.332Z,55.95
2019-05-20T20:56:25.155Z,55.96
2019-05-20T20:58:45.670Z,55.99
2019-05-20T21:01:12.606Z,55.76
2019-05-20T21:03:39.583Z,56.00
2019-05-20T21:06:06.768Z,56.02
2019-05-20T21:08:36.210Z,56.03
2019-05-20T21:11:03.020Z,55.88
2019-05-20T21:13:29.819Z,55.93
2019-05-20T21:15:58.592Z,56.03
2019-05-20T21:18:25.555Z,56.02
2019-05-20T21:20:52.693Z,56.03
2019-05-20T21:23:19.674Z,55.98
2019-05-20T21:25:46.578Z,56.03
2019-05-20T21:28:13.481Z,56.12
2019-05-20T21:30:40.274Z,56.01
2019-05-20T21:33:09.642Z,55.94
2019-05-20T21:35:35.868Z,56.06
2019-05-20T21:38:02.819Z,55.97
2019-05-20T21:40:30.373Z,55.98
2019-05-20T21:42:57.209Z,55.97
2019-05-20T21:45:24.073Z,56.04
2019-05-20T21:47:51.013Z,55.84
2019-05-20T21:50:17.975Z,55.84
2019-05-20T21:52:44.948Z,55.95
2019-05-20T21:55:11.856Z,55.94
2019-05-20T21:57:38.712Z,55.92
2019-05-20T22:00:05.526Z,55.86
2019-05-20T22:02:32.340Z,56.03
2019-05-20T22:04:59.161Z,56.02
2019-05-20T22:07:25.989Z,56.02
2019-05-20T22:09:53.048Z,56.03
2019-05-20T22:12:19.946Z,56.02
2019-05-20T22:14:46.749Z,56.02
2019-05-20T22:17:13.589Z,55.94
2019-05-20T22:19:40.595Z,56.04
2019-05-20T22:22:09.070Z,56.05
2019-05-20T22:24:35.886Z,56.02
2019-05-20T22:27:02.807Z,56.01
2019-05-20T22:29:29.618Z,56.05
2019-05-20T22:31:56.443Z,55.98
2019-05-20T22:34:23.244Z,55.94
2019-05-20T22:36:50.061Z,56.00
2019-05-20T22:39:17.090Z,56.02
2019-05-20T22:41:43.960Z,55.99
2019-05-20T22:44:10.845Z,55.90
2019-05-20T22:46:37.704Z,55.99
2019-05-20T22:49:04.567Z,55.85
2019-05-20T22:51:31.619Z,55.95
2019-05-20T22:53:58.583Z,55.92
2019-05-20T22:56:25.453Z,55.91
2019-05-20T22:58:52.289Z,55.95
2019-05-20T23:01:19.085Z,55.83
2019-05-20T23:03:56.147Z,55.88
2019-05-20T23:06:14.615Z,55.96
2019-05-20T23:08:41.671Z,55.92
2019-05-20T23:11:08.706Z,55.83
2019-05-20T23:13:35.533Z,55.86
2019-05-20T23:16:02.544Z,56.01
2019-05-20T23:18:29.441Z,56.03
2019-05-20T23:20:56.308Z,55.77
2019-05-20T23:23:23.452Z,55.94
2019-05-20T23:25:52.782Z,56.01
2019-05-20T23:28:19.088Z,55.79
2019-05-20T23:30:45.936Z,55.99
2019-05-20T23:33:12.831Z,55.81
2019-05-20T23:35:39.677Z,55.98
2019-05-20T23:38:06.563Z,56.00
2019-05-20T23:40:33.394Z,56.03
2019-05-20T23:43:00.208Z,55.83
2019-05-20T23:45:27.047Z,55.94
2019-05-20T23:47:53.861Z,55.94
2019-05-20T23:50:20.691Z,55.75
2019-05-20T23:52:47.493Z,56.01
2019-05-20T23:55:14.381Z,56.09
2019-05-20T23:57:41.185Z,55.86
